createdAt,value
2022-12-25T00:01:27.191Z,28.70
2022-12-25T00:06:37.223Z,29.75
2022-12-25T00:11:52.570Z,31.45
2022-12-25T00:17:10.785Z,30.30
2022-12-25T00:22:36.240Z,33.13
2022-12-25T00:27:54.819Z,32.20
2022-12-25T00:33:00.268Z,27.77
2022-12-25T00:38:17.673Z,30.02
2022-12-25T00:44:01.487Z,35.53
2022-12-25T00:49:03.482Z,31.77
2022-12-25T00:54:08.979Z,33.25
2022-12-25T00:59:17.363Z,32.30
2022-12-25T01:15:35.070Z,38.45
2022-12-25T01:20:40.620Z,33.85
2022-12-25T01:25:46.147Z,33.53
2022-12-25T01:30:56.777Z,38.50
2022-12-25T01:42:03.643Z,23.38
2022-12-25T01:47:11.771Z,28.92
2022-12-25T01:52:36.031Z,30.13
2022-12-25T01:57:42.603Z,28.65
2022-12-25T02:03:02.304Z,29.55
2022-12-25T02:08:14.764Z,32.90
2022-12-25T02:13:22.052Z,26.17
2022-12-25T02:18:49.576Z,28.65
2022-12-25T02:24:35.212Z,33.33
2022-12-25T02:29:49.462Z,25.73
2022-12-25T02:34:57.410Z,27.20
2022-12-25T02:40:05.616Z,34.42
2022-12-25T02:45:33.928Z,29.40
2022-12-25T02:50:51.588Z,27.13
2022-12-25T02:56:09.405Z,26.15
2022-12-25T03:01:32.285Z,25.50
2022-12-25T03:06:47.530Z,27.33
2022-12-25T03:11:58.279Z,28.00
2022-12-25T03:17:06.502Z,25.98
2022-12-25T03:22:27.218Z,27.45
2022-12-25T03:27:35.594Z,26.55
2022-12-25T03:38:26.611Z,30.08
2022-12-25T03:43:48.436Z,24.23
2022-12-25T03:49:15.325Z,24.40
2022-12-25T03:54:35.810Z,27.02
2022-12-25T03:59:53.436Z,27.30
2022-12-25T04:05:14.670Z,27.42
2022-12-25T04:10:32.380Z,30.58
2022-12-25T04:15:50.052Z,28.90
2022-12-25T04:21:10.597Z,25.52
2022-12-25T04:26:36.349Z,26.80
2022-12-25T04:31:53.885Z,28.23
2022-12-25T04:37:25.477Z,27.08
2022-12-25T04:42:32.351Z,27.20
2022-12-25T04:47:44.865Z,27.27
2022-12-25T04:52:52.984Z,28.30
2022-12-25T04:58:23.817Z,28.50
2022-12-25T05:03:36.804Z,29.55
2022-12-25T05:14:08.543Z,28.17
2022-12-25T05:19:14.632Z,32.75
2022-12-25T05:24:20.505Z,27.58
2022-12-25T05:29:31.086Z,29.13
2022-12-25T05:34:36.409Z,30.83
2022-12-25T05:39:41.795Z,31.98
2022-12-25T05:44:49.923Z,33.60
2022-12-25T05:49:55.386Z,32.03
2022-12-25T05:55:00.720Z,32.47
2022-12-25T06:00:14.764Z,32.17
2022-12-25T06:05:20.355Z,36.05
2022-12-25T06:10:26.285Z,37.78
2022-12-25T06:15:37.196Z,26.83
2022-12-25T06:20:43.797Z,29.90
2022-12-25T06:25:48.944Z,33.70
2022-12-25T06:30:56.924Z,35.95
2022-12-25T06:36:02.182Z,39.33
2022-12-25T06:41:08.759Z,36.03
2022-12-25T06:46:16.655Z,39.03
2022-12-25T06:51:24.537Z,40.17
2022-12-25T06:56:31.485Z,42.45
2022-12-25T07:01:43.134Z,42.83
2022-12-25T07:06:48.414Z,43.20
2022-12-25T07:11:55.680Z,70.70
2022-12-25T07:17:10.299Z,85.20
2022-12-25T08:46:57.664Z,112.68
2022-12-25T16:03:53.310Z,91.07
2022-12-25T16:09:00.230Z,69.97
2022-12-25T16:19:35.808Z,74.60
2022-12-25T16:24:58.621Z,68.15
2022-12-25T16:36:09.607Z,57.72
2022-12-25T16:47:31.136Z,52.67
2022-12-25T16:52:45.411Z,61.80
2022-12-25T16:58:26.275Z,73.95
2022-12-25T17:03:47.657Z,77.40
2022-12-25T17:09:14.882Z,69.53
2022-12-25T17:19:36.404Z,28.48
2022-12-25T17:24:59.514Z,38.15
2022-12-25T17:30:05.489Z,35.05
2022-12-25T17:35:16.937Z,42.90
2022-12-25T17:40:30.184Z,42.22
2022-12-25T17:45:39.519Z,44.72
2022-12-25T17:50:45.524Z,54.42
2022-12-25T17:55:54.002Z,55.63
2022-12-25T18:06:10.609Z,31.08
2022-12-25T18:11:21.028Z,34.15
2022-12-25T18:16:30.284Z,27.08
2022-12-25T18:21:36.560Z,32.17
2022-12-25T18:26:49.034Z,36.45
2022-12-25T18:31:56.463Z,31.38
2022-12-25T18:54:41.230Z,38.38
2022-12-25T19:44:11.889Z,40.30
2022-12-25T19:50:56.413Z,41.50
2022-12-25T19:56:14.228Z,32.47
2022-12-25T20:02:28.462Z,41.08
2022-12-25T20:20:01.059Z,41.95
2022-12-25T21:12:53.310Z,34.08
2022-12-25T21:18:24.973Z,30.42
2022-12-25T21:29:31.728Z,29.63
2022-12-25T21:35:10.906Z,28.90
2022-12-25T21:46:15.088Z,27.63
2022-12-25T21:51:35.499Z,34.78
2022-12-25T21:56:45.546Z,31.60
2022-12-25T22:01:56.034Z,30.65
2022-12-25T22:07:15.547Z,39.05
2022-12-25T22:12:44.988Z,46.28
2022-12-25T22:18:16.630Z,35.70
2022-12-25T22:23:22.673Z,35.20
2022-12-25T22:28:29.908Z,34.67
2022-12-25T22:33:38.576Z,32.05
2022-12-25T22:38:48.543Z,32.55
2022-12-25T22:49:31.745Z,29.15
2022-12-25T22:59:48.385Z,26.08
2022-12-25T23:04:58.911Z,30.02
2022-12-25T23:10:04.855Z,29.98
2022-12-25T23:15:12.737Z,26.02
2022-12-25T23:20:33.448Z,24.40
2022-12-25T23:25:51.689Z,22.85
2022-12-25T23:30:57.553Z,25.45
2022-12-25T23:36:06.303Z,24.38
2022-12-25T23:41:11.706Z,22.33
2022-12-25T23:46:17.517Z,31.65
2022-12-25T23:51:25.504Z,31.27
2022-12-25T23:56:30.847Z,23.33
